createdAt,value
2023-01-20T00:01:48.093Z,66.70
2023-01-20T00:04:19.088Z,66.80
2023-01-20T00:06:49.443Z,67.00
2023-01-20T00:09:19.533Z,67.00
2023-01-20T00:11:48.296Z,67.00
2023-01-20T00:14:17.812Z,67.00
2023-01-20T00:16:46.839Z,66.70
2023-01-20T00:19:16.337Z,66.70
2023-01-20T00:21:45.633Z,66.80
2023-01-20T00:24:16.446Z,67.00
2023-01-20T00:26:45.338Z,67.00
2023-01-20T00:29:14.479Z,66.90
2023-01-20T00:31:43.699Z,67.00
2023-01-20T00:34:12.905Z,67.00
2023-01-20T00:36:41.781Z,67.20
2023-01-20T00:39:10.734Z,67.30
2023-01-20T00:41:40.996Z,67.40
2023-01-20T00:44:10.001Z,67.60
2023-01-20T00:46:39.166Z,67.60
2023-01-20T00:49:08.424Z,67.50
2023-01-20T00:51:37.380Z,67.40
2023-01-20T00:54:06.407Z,67.50
2023-01-20T00:56:35.316Z,67.40
2023-01-20T00:59:05.531Z,67.50
2023-01-20T01:01:34.515Z,67.60
2023-01-20T01:04:03.496Z,67.50
2023-01-20T01:06:32.501Z,67.60
2023-01-20T01:09:01.407Z,67.50
2023-01-20T01:11:30.351Z,67.50
2023-01-20T01:13:59.321Z,67.40
2023-01-20T01:16:29.464Z,67.40
2023-01-20T01:18:58.375Z,67.50
2023-01-20T01:21:27.370Z,67.50
2023-01-20T01:23:56.481Z,67.40
2023-01-20T01:26:25.483Z,67.40
2023-01-20T01:28:54.504Z,67.40
2023-01-20T01:31:23.292Z,67.60
2023-01-20T01:33:53.501Z,67.50
2023-01-20T01:36:22.332Z,67.60
2023-01-20T01:38:58.903Z,67.60
2023-01-20T01:41:28.544Z,67.60
2023-01-20T01:44:10.147Z,67.70
2023-01-20T01:46:40.386Z,67.70
2023-01-20T01:49:14.960Z,67.50
2023-01-20T01:51:49.259Z,67.60
2023-01-20T01:54:22.415Z,67.60
2023-01-20T01:56:52.852Z,67.60
2023-01-20T01:59:22.587Z,67.70
2023-01-20T02:01:53.435Z,67.70
2023-01-20T02:04:26.088Z,67.70
2023-01-20T02:07:00.301Z,67.60
2023-01-20T02:09:31.247Z,67.70
2023-01-20T02:12:03.585Z,67.70
2023-01-20T02:14:36.210Z,67.80
2023-01-20T02:17:14.499Z,67.90
2023-01-20T02:20:31.013Z,67.90
2023-01-20T02:23:06.931Z,68.00
2023-01-20T02:26:23.605Z,68.00
2023-01-20T02:29:11.009Z,68.10
2023-01-20T02:32:09.390Z,68.10
2023-01-20T02:34:45.379Z,68.10
2023-01-20T02:37:17.681Z,68.10
2023-01-20T02:39:57.338Z,68.10
2023-01-20T02:42:32.387Z,68.10
2023-01-20T02:45:10.171Z,68.10
2023-01-20T02:47:51.615Z,68.10
2023-01-20T02:50:24.940Z,68.30
2023-01-20T02:52:57.745Z,68.30
2023-01-20T02:55:31.787Z,68.40
2023-01-20T02:58:04.624Z,68.40
2023-01-20T03:00:38.039Z,68.60
2023-01-20T03:03:13.195Z,69.40
2023-01-20T03:05:46.965Z,68.70
2023-01-20T03:08:17.967Z,68.80
2023-01-20T03:10:50.441Z,68.90
2023-01-20T03:13:25.151Z,69.00
2023-01-20T03:16:00.172Z,69.00
2023-01-20T03:18:33.745Z,68.90
2023-01-20T03:21:04.955Z,68.90
2023-01-20T03:23:36.861Z,68.90
2023-01-20T03:26:09.331Z,69.00
2023-01-20T03:28:38.730Z,69.20
2023-01-20T03:31:15.619Z,69.00
2023-01-20T03:33:49.272Z,69.20
2023-01-20T03:36:21.754Z,69.10
2023-01-20T03:38:51.233Z,69.20
2023-01-20T03:41:27.871Z,69.20
2023-01-20T03:44:06.487Z,69.40
2023-01-20T03:46:44.018Z,69.30
2023-01-20T03:49:20.619Z,69.40
2023-01-20T03:52:00.421Z,69.40
2023-01-20T03:54:35.435Z,69.50
2023-01-20T03:57:09.244Z,69.60
2023-01-20T03:59:41.298Z,69.50
2023-01-20T04:02:11.594Z,69.50
2023-01-20T04:04:45.114Z,69.60
2023-01-20T04:07:19.311Z,69.50
2023-01-20T04:09:52.468Z,69.40
2023-01-20T04:12:21.426Z,69.40
2023-01-20T04:14:50.456Z,69.40
2023-01-20T04:17:19.729Z,69.50
2023-01-20T04:19:50.477Z,69.60
2023-01-20T04:22:26.860Z,69.60
2023-01-20T04:25:01.165Z,69.70
2023-01-20T04:27:30.368Z,69.80
2023-01-20T04:29:59.470Z,69.80
2023-01-20T04:32:28.469Z,69.80
2023-01-20T04:34:58.777Z,69.80
2023-01-20T04:37:27.912Z,69.80
2023-01-20T04:39:57.147Z,69.80
2023-01-20T04:42:26.180Z,69.80
2023-01-20T04:44:55.050Z,69.80
2023-01-20T04:47:23.876Z,69.80
2023-01-20T04:49:53.067Z,69.80
2023-01-20T04:52:23.583Z,69.80
2023-01-20T04:54:52.668Z,69.90
2023-01-20T04:57:21.732Z,69.90
2023-01-20T04:59:51.046Z,69.80
2023-01-20T05:02:20.376Z,69.90
2023-01-20T05:04:49.379Z,69.80
2023-01-20T05:07:18.495Z,69.90
2023-01-20T05:09:48.871Z,69.90
2023-01-20T05:12:17.921Z,69.90
2023-01-20T05:14:47.034Z,69.80
2023-01-20T05:17:16.154Z,69.90
2023-01-20T05:19:45.188Z,69.90
2023-01-20T05:22:14.451Z,69.90
2023-01-20T05:24:43.612Z,69.80
2023-01-20T05:27:14.056Z,70.00
2023-01-20T05:29:43.152Z,70.00
2023-01-20T05:32:12.541Z,70.00
2023-01-20T05:34:41.617Z,70.00
2023-01-20T05:37:10.671Z,69.90
2023-01-20T05:39:39.949Z,70.00
2023-01-20T05:42:09.214Z,70.00
2023-01-20T05:44:39.709Z,69.90
2023-01-20T05:47:09.021Z,70.00
2023-01-20T05:49:38.482Z,70.00
2023-01-20T05:52:07.426Z,70.00
2023-01-20T05:54:36.428Z,70.00
2023-01-20T05:57:06.833Z,70.00
2023-01-20T05:59:36.132Z,70.00
2023-01-20T06:02:06.767Z,70.00
2023-01-20T06:04:36.482Z,70.10
2023-01-20T06:07:05.616Z,70.10
2023-01-20T06:09:34.959Z,70.10
2023-01-20T06:12:04.324Z,70.10
2023-01-20T06:14:33.766Z,70.20
2023-01-20T06:17:02.767Z,70.10
2023-01-20T06:19:33.388Z,70.20
2023-01-20T06:22:02.462Z,70.30
2023-01-20T06:24:31.786Z,70.20
2023-01-20T06:27:02.049Z,70.30
2023-01-20T06:29:32.125Z,70.40
2023-01-20T06:32:01.224Z,70.40
2023-01-20T06:34:30.339Z,70.40
2023-01-20T06:37:01.879Z,70.30
2023-01-20T06:39:31.142Z,70.20
2023-01-20T06:42:00.893Z,70.40
2023-01-20T06:44:30.077Z,70.50
2023-01-20T06:46:59.405Z,70.40
2023-01-20T06:49:29.029Z,70.40
2023-01-20T06:51:58.111Z,70.40
2023-01-20T06:54:28.807Z,70.50
2023-01-20T06:56:57.903Z,70.50
2023-01-20T06:59:27.538Z,70.50
2023-01-20T07:01:56.841Z,70.50
2023-01-20T07:04:26.141Z,70.30
2023-01-20T07:06:55.263Z,70.40
2023-01-20T07:09:24.398Z,70.50
2023-01-20T07:11:55.739Z,70.40
2023-01-20T07:14:25.021Z,70.50
2023-01-20T07:16:54.372Z,70.50
2023-01-20T07:19:23.765Z,70.40
2023-01-20T07:21:52.825Z,70.40
2023-01-20T07:24:21.966Z,70.40
2023-01-20T07:26:55.061Z,70.20
2023-01-20T07:29:24.317Z,70.40
2023-01-20T07:31:53.677Z,70.20
2023-01-20T07:34:23.019Z,70.30
2023-01-20T07:36:53.507Z,70.40
2023-01-20T07:39:23.192Z,70.40
2023-01-20T07:41:53.962Z,70.30
2023-01-20T07:44:23.109Z,70.40
2023-01-20T07:46:52.645Z,70.40
2023-01-20T07:49:21.915Z,70.20
2023-01-20T07:51:51.460Z,70.40
2023-01-20T07:54:20.932Z,70.20
2023-01-20T07:56:49.959Z,70.20
2023-01-20T07:59:20.502Z,70.20
2023-01-20T08:01:49.772Z,70.20
2023-01-20T08:04:19.257Z,70.40
2023-01-20T08:06:48.766Z,70.40
2023-01-20T08:09:17.572Z,70.50
2023-01-20T08:11:46.791Z,70.40
2023-01-20T08:14:16.431Z,70.50
2023-01-20T08:16:46.889Z,70.50
2023-01-20T08:19:16.038Z,70.50
2023-01-20T08:21:45.146Z,70.50
2023-01-20T08:24:14.137Z,70.50
2023-01-20T08:26:43.280Z,70.30
2023-01-20T08:29:12.148Z,70.40
2023-01-20T08:31:42.064Z,70.20
2023-01-20T08:34:12.786Z,70.30
2023-01-20T08:36:42.347Z,70.20
2023-01-20T08:39:18.109Z,70.20
2023-01-20T08:41:48.394Z,70.20
2023-01-20T08:44:20.448Z,70.40
2023-01-20T08:46:52.626Z,70.40
2023-01-20T08:49:23.496Z,70.50
2023-01-20T08:51:53.531Z,70.50
2023-01-20T08:54:23.028Z,70.50
2023-01-20T08:56:52.748Z,70.60
2023-01-20T08:59:23.716Z,70.50
2023-01-20T09:01:53.088Z,70.60
2023-01-20T09:04:23.697Z,70.50
2023-01-20T09:06:53.960Z,70.30
2023-01-20T09:09:24.295Z,70.20
2023-01-20T09:11:53.658Z,70.10
2023-01-20T09:14:24.872Z,70.10
2023-01-20T09:16:53.888Z,70.10
2023-01-20T09:19:24.749Z,70.10
2023-01-20T09:21:53.999Z,70.00
2023-01-20T09:24:23.487Z,70.00
2023-01-20T09:26:53.322Z,70.70
2023-01-20T09:29:22.438Z,69.90
2023-01-20T09:31:53.368Z,69.90
2023-01-20T09:34:24.425Z,69.80
2023-01-20T09:36:54.476Z,69.70
2023-01-20T09:39:42.137Z,69.80
2023-01-20T09:42:43.882Z,69.70
2023-01-20T09:45:25.359Z,69.60
2023-01-20T09:48:03.140Z,69.70
2023-01-20T09:51:04.682Z,69.70
2023-01-20T09:53:43.624Z,69.80
2023-01-20T09:56:17.741Z,69.80
2023-01-20T09:58:54.103Z,69.90
2023-01-20T10:01:30.962Z,69.70
2023-01-20T10:04:06.210Z,69.80
2023-01-20T10:06:42.037Z,69.50
2023-01-20T10:09:21.354Z,69.50
2023-01-20T10:11:52.182Z,69.30
2023-01-20T10:14:29.402Z,69.10
2023-01-20T10:17:05.382Z,69.70
2023-01-20T10:19:38.922Z,68.90
2023-01-20T10:22:14.501Z,68.90
2023-01-20T10:24:50.086Z,68.80
2023-01-20T10:27:19.214Z,68.70
2023-01-20T10:29:54.057Z,68.70
2023-01-20T10:32:29.861Z,68.70
2023-01-20T10:35:01.272Z,68.70
2023-01-20T10:37:33.205Z,68.60
2023-01-20T10:40:16.830Z,68.50
2023-01-20T10:42:49.719Z,68.30
2023-01-20T10:45:24.466Z,68.20
2023-01-20T10:48:06.428Z,67.90
2023-01-20T10:50:48.650Z,67.90
2023-01-20T10:53:36.574Z,67.70
2023-01-20T10:56:19.506Z,67.40
2023-01-20T10:58:48.802Z,67.40
2023-01-20T11:01:20.091Z,67.50
2023-01-20T11:03:50.705Z,68.00
2023-01-20T11:06:22.073Z,67.70
2023-01-20T11:08:52.961Z,67.70
2023-01-20T11:11:24.628Z,67.80
2023-01-20T11:13:54.691Z,67.80
2023-01-20T11:16:28.979Z,67.60
2023-01-20T11:19:00.641Z,67.70
2023-01-20T11:21:33.693Z,67.80
2023-01-20T11:24:10.504Z,67.80
2023-01-20T11:26:40.513Z,67.80
2023-01-20T11:29:30.830Z,67.80
2023-01-20T11:32:01.103Z,67.80
2023-01-20T11:34:31.651Z,67.70
2023-01-20T11:37:29.032Z,68.50
2023-01-20T11:40:02.144Z,67.90
2023-01-20T11:42:42.571Z,68.10
2023-01-20T11:45:26.299Z,68.20
2023-01-20T11:48:03.321Z,68.20
2023-01-20T11:50:36.516Z,68.10
2023-01-20T11:53:20.980Z,68.20
2023-01-20T11:55:54.661Z,67.90
2023-01-20T11:58:25.963Z,67.90
2023-01-20T12:01:02.242Z,67.90
2023-01-20T12:03:57.869Z,67.60
2023-01-20T12:06:32.011Z,67.70
2023-01-20T12:09:05.365Z,67.60
2023-01-20T12:11:41.884Z,67.80
2023-01-20T12:14:28.772Z,67.80
2023-01-20T12:17:24.084Z,67.70
2023-01-20T12:20:07.108Z,67.70
2023-01-20T12:22:44.007Z,67.60
2023-01-20T12:25:20.700Z,67.70
2023-01-20T12:27:54.952Z,67.70
2023-01-20T12:30:45.325Z,67.50
2023-01-20T12:33:23.861Z,67.30
2023-01-20T12:36:18.345Z,67.40
2023-01-20T12:38:58.256Z,67.10
2023-01-20T12:41:49.331Z,66.90
2023-01-20T12:44:29.295Z,66.80
2023-01-20T12:47:07.035Z,66.80
2023-01-20T12:49:55.807Z,66.70
2023-01-20T12:52:43.543Z,66.80
2023-01-20T12:55:23.352Z,66.70
2023-01-20T12:58:04.295Z,66.90
2023-01-20T13:00:51.059Z,66.80
2023-01-20T13:03:43.460Z,66.80
2023-01-20T13:06:35.975Z,66.70
2023-01-20T13:09:22.078Z,66.40
2023-01-20T13:12:02.077Z,66.30
2023-01-20T13:14:41.444Z,66.10
2023-01-20T13:17:20.623Z,66.30
2023-01-20T13:19:52.707Z,66.30
2023-01-20T13:22:26.699Z,66.50
2023-01-20T13:24:58.509Z,66.50
2023-01-20T13:27:29.832Z,66.40
2023-01-20T13:30:02.952Z,66.20
2023-01-20T13:32:45.061Z,66.00
2023-01-20T13:35:47.611Z,65.90
2023-01-20T13:38:25.681Z,66.40
2023-01-20T13:40:58.725Z,66.40
2023-01-20T13:43:50.318Z,66.40
2023-01-20T13:46:49.380Z,66.10
2023-01-20T13:49:30.966Z,66.20
2023-01-20T13:52:00.126Z,66.00
2023-01-20T13:54:42.879Z,65.90
2023-01-20T13:57:36.634Z,65.90
2023-01-20T14:00:17.701Z,65.60
2023-01-20T14:02:48.698Z,65.60
2023-01-20T14:05:30.219Z,65.60
2023-01-20T14:07:59.712Z,65.70
2023-01-20T14:10:30.297Z,66.50
2023-01-20T14:12:59.563Z,66.40
2023-01-20T14:15:34.757Z,65.70
2023-01-20T14:18:07.545Z,65.70
2023-01-20T14:20:38.133Z,65.80
2023-01-20T14:23:27.839Z,65.50
2023-01-20T14:26:03.315Z,65.50
2023-01-20T14:28:33.306Z,65.60
2023-01-20T14:31:16.270Z,65.70
2023-01-20T14:33:47.028Z,65.90
2023-01-20T14:36:19.397Z,65.90
2023-01-20T14:38:57.806Z,65.80
2023-01-20T14:41:33.386Z,65.80
2023-01-20T14:44:03.749Z,66.00
2023-01-20T14:46:35.264Z,66.20
2023-01-20T14:49:06.049Z,67.10
2023-01-20T14:51:36.692Z,66.00
2023-01-20T14:54:29.058Z,66.50
2023-01-20T14:56:59.947Z,66.70
2023-01-20T14:59:28.940Z,66.70
2023-01-20T15:02:03.275Z,66.70
2023-01-20T15:04:37.118Z,66.70
2023-01-20T15:07:07.547Z,66.70
2023-01-20T15:09:36.724Z,66.60
2023-01-20T15:12:33.800Z,66.40
2023-01-20T15:15:14.814Z,66.50
2023-01-20T15:18:05.639Z,66.40
2023-01-20T15:20:40.412Z,66.40
2023-01-20T15:23:17.186Z,66.30
2023-01-20T15:25:46.614Z,66.20
2023-01-20T15:28:25.865Z,66.20
2023-01-20T15:30:57.117Z,66.30
2023-01-20T15:33:27.042Z,66.30
2023-01-20T15:35:57.912Z,66.30
2023-01-20T15:38:31.510Z,66.60
2023-01-20T15:41:01.101Z,66.60
2023-01-20T15:43:30.344Z,66.60
2023-01-20T15:45:59.951Z,66.60
2023-01-20T15:48:29.044Z,67.00
2023-01-20T15:50:58.195Z,66.80
2023-01-20T15:53:29.091Z,66.90
2023-01-20T15:55:58.189Z,67.10
2023-01-20T15:58:29.156Z,67.10
2023-01-20T16:01:00.139Z,67.00
2023-01-20T16:03:31.992Z,67.10
2023-01-20T16:06:01.180Z,67.10
2023-01-20T16:08:37.895Z,67.10
2023-01-20T16:11:07.969Z,67.10
2023-01-20T16:13:37.257Z,67.20
2023-01-20T16:16:13.586Z,67.10
2023-01-20T16:18:43.104Z,67.30
2023-01-20T16:21:12.726Z,67.10
2023-01-20T16:23:43.481Z,67.30
2023-01-20T16:26:20.627Z,67.30
2023-01-20T16:28:49.896Z,67.30
2023-01-20T16:31:19.247Z,67.10
2023-01-20T16:33:48.720Z,67.20
2023-01-20T16:36:19.348Z,67.20
2023-01-20T16:38:51.696Z,67.30
2023-01-20T16:41:22.860Z,67.30
2023-01-20T16:43:52.584Z,67.30
2023-01-20T16:46:23.722Z,67.50
2023-01-20T16:48:54.371Z,67.50
2023-01-20T16:51:26.430Z,67.30
2023-01-20T16:53:58.482Z,67.30
2023-01-20T16:56:29.643Z,67.30
2023-01-20T16:59:00.712Z,67.40
2023-01-20T17:01:31.311Z,67.40
2023-01-20T17:04:02.248Z,67.50
2023-01-20T17:06:34.508Z,67.60
2023-01-20T17:09:06.294Z,67.60
2023-01-20T17:11:37.717Z,67.60
2023-01-20T17:14:08.703Z,67.70
2023-01-20T17:16:38.602Z,67.70
2023-01-20T17:19:08.020Z,67.60
2023-01-20T17:21:40.241Z,67.60
2023-01-20T17:24:12.599Z,67.60
2023-01-20T17:26:41.574Z,67.60
2023-01-20T17:29:12.485Z,67.60
2023-01-20T17:31:42.921Z,67.60
2023-01-20T17:34:12.829Z,67.60
2023-01-20T17:36:42.078Z,67.70
2023-01-20T17:39:12.783Z,67.70
2023-01-20T17:41:41.836Z,67.80
2023-01-20T17:44:10.737Z,67.80
2023-01-20T17:46:40.152Z,67.80
2023-01-20T17:49:09.985Z,68.00
2023-01-20T17:51:39.213Z,68.00
2023-01-20T17:54:09.628Z,68.00
2023-01-20T17:56:40.261Z,68.10
2023-01-20T17:59:09.878Z,68.10
2023-01-20T18:01:39.187Z,68.10
2023-01-20T18:04:10.428Z,68.10
2023-01-20T18:06:40.789Z,68.30
2023-01-20T18:09:12.621Z,68.50
2023-01-20T18:11:44.336Z,68.60
2023-01-20T18:14:14.232Z,68.70
2023-01-20T18:16:43.586Z,68.60
2023-01-20T18:19:14.018Z,68.70
2023-01-20T18:21:44.119Z,68.70
2023-01-20T18:24:13.404Z,68.60
2023-01-20T18:26:43.986Z,68.50
2023-01-20T18:29:16.422Z,68.60
2023-01-20T18:31:46.544Z,68.70
2023-01-20T18:34:16.824Z,68.70
2023-01-20T18:36:49.331Z,68.70
2023-01-20T18:39:21.175Z,68.60
2023-01-20T18:41:53.233Z,68.80
2023-01-20T18:44:23.253Z,68.70
2023-01-20T18:46:52.374Z,68.70
2023-01-20T18:49:21.681Z,68.50
2023-01-20T18:51:50.920Z,68.70
2023-01-20T18:54:21.897Z,68.70
2023-01-20T18:56:52.234Z,68.70
2023-01-20T18:59:21.511Z,68.70
2023-01-20T19:01:50.901Z,68.70
2023-01-20T19:04:19.975Z,68.70
2023-01-20T19:06:49.349Z,68.70
2023-01-20T19:09:19.690Z,68.60
2023-01-20T19:11:48.992Z,68.60
2023-01-20T19:14:19.857Z,68.70
2023-01-20T19:16:50.065Z,68.60
2023-01-20T19:19:20.027Z,68.40
2023-01-20T19:21:52.189Z,68.30
2023-01-20T19:24:22.633Z,68.30
2023-01-20T19:26:51.635Z,68.30
2023-01-20T19:29:22.295Z,68.10
2023-01-20T19:31:52.344Z,68.30
2023-01-20T19:34:21.839Z,68.10
2023-01-20T19:36:50.792Z,67.80
2023-01-20T19:39:20.647Z,67.80
2023-01-20T19:41:49.965Z,67.80
2023-01-20T19:44:19.313Z,67.70
2023-01-20T19:46:49.702Z,67.60
2023-01-20T19:49:18.762Z,67.60
2023-01-20T19:51:48.212Z,67.80
2023-01-20T19:54:17.366Z,67.90
2023-01-20T19:56:46.488Z,67.80
2023-01-20T19:59:15.464Z,67.90
2023-01-20T20:01:44.681Z,67.90
2023-01-20T20:04:15.160Z,67.90
2023-01-20T20:06:48.596Z,68.00
2023-01-20T20:09:19.441Z,68.20
2023-01-20T20:11:49.109Z,68.10
2023-01-20T20:14:20.362Z,68.20
2023-01-20T20:16:50.759Z,68.30
2023-01-20T20:19:21.279Z,68.40
2023-01-20T20:21:50.557Z,68.50
2023-01-20T20:24:19.957Z,68.60
2023-01-20T20:26:49.486Z,68.90
2023-01-20T20:29:20.409Z,69.00
2023-01-20T20:31:49.560Z,69.10
2023-01-20T20:34:21.357Z,69.20
2023-01-20T20:36:51.457Z,69.20
2023-01-20T20:39:21.008Z,69.10
2023-01-20T20:41:50.388Z,69.20
2023-01-20T20:44:19.553Z,69.20
2023-01-20T20:46:48.904Z,69.20
2023-01-20T20:49:19.198Z,69.20
2023-01-20T20:51:49.756Z,69.20
2023-01-20T20:54:19.247Z,70.00
2023-01-20T20:56:48.508Z,69.30
2023-01-20T20:59:19.584Z,69.20
2023-01-20T21:01:50.470Z,69.20
2023-01-20T21:04:19.729Z,69.20
2023-01-20T21:06:50.405Z,69.00
2023-01-20T21:09:19.695Z,69.20
2023-01-20T21:11:48.849Z,69.30
2023-01-20T21:14:21.299Z,69.40
2023-01-20T21:16:50.316Z,69.40
2023-01-20T21:19:19.411Z,69.40
2023-01-20T21:21:50.326Z,69.30
2023-01-20T21:24:20.014Z,69.10
2023-01-20T21:26:51.317Z,69.10
2023-01-20T21:29:20.747Z,69.20
2023-01-20T21:31:53.275Z,69.40
2023-01-20T21:34:22.262Z,69.20
2023-01-20T21:36:52.615Z,69.40
2023-01-20T21:39:21.866Z,69.20
2023-01-20T21:41:51.070Z,69.10
2023-01-20T21:44:39.722Z,69.50
2023-01-20T21:47:09.209Z,69.40
2023-01-20T21:49:55.586Z,69.30
2023-01-20T21:52:48.272Z,69.30
2023-01-20T21:55:19.971Z,69.20
2023-01-20T21:57:51.442Z,69.20
2023-01-20T22:00:21.959Z,69.10
2023-01-20T22:02:50.797Z,68.90
2023-01-20T22:05:20.212Z,68.80
2023-01-20T22:07:50.705Z,68.80
2023-01-20T22:10:23.139Z,68.90
2023-01-20T22:12:55.857Z,69.00
2023-01-20T22:15:25.717Z,69.20
2023-01-20T22:17:54.902Z,69.40
2023-01-20T22:20:24.115Z,69.30
2023-01-20T22:22:54.781Z,69.20
2023-01-20T22:25:23.823Z,69.20
2023-01-20T22:27:52.795Z,69.00
2023-01-20T22:30:21.913Z,69.10
2023-01-20T22:32:50.793Z,68.90
2023-01-20T22:35:19.880Z,68.90
2023-01-20T22:37:48.862Z,68.90
2023-01-20T22:40:19.576Z,68.90
2023-01-20T22:42:48.598Z,68.90
2023-01-20T22:45:18.376Z,68.80
2023-01-20T22:47:47.428Z,68.80
2023-01-20T22:50:16.802Z,69.60
2023-01-20T22:52:46.125Z,68.70
2023-01-20T22:55:15.688Z,68.60
2023-01-20T22:57:46.268Z,68.70
2023-01-20T23:00:17.332Z,68.80
2023-01-20T23:02:46.691Z,68.90
2023-01-20T23:05:16.054Z,68.80
2023-01-20T23:07:45.079Z,68.90
2023-01-20T23:10:35.439Z,68.70
2023-01-20T23:13:06.017Z,68.60
2023-01-20T23:15:35.212Z,68.60
2023-01-20T23:18:04.448Z,68.70
2023-01-20T23:20:33.559Z,68.70
2023-01-20T23:23:03.549Z,68.80
2023-01-20T23:25:32.729Z,69.60
2023-01-20T23:28:02.205Z,68.80
2023-01-20T23:30:32.993Z,68.70
2023-01-20T23:33:03.185Z,68.90
2023-01-20T23:35:34.223Z,69.00
2023-01-20T23:38:03.406Z,68.90
2023-01-20T23:40:32.653Z,68.80
2023-01-20T23:43:01.840Z,68.90
2023-01-20T23:45:32.254Z,68.90
2023-01-20T23:48:01.562Z,69.10
2023-01-20T23:50:30.700Z,69.30
2023-01-20T23:52:59.719Z,69.60
2023-01-20T23:55:28.687Z,69.50
2023-01-20T23:57:57.869Z,69.40
